Time;durP1;ratioP1;P1;durP2;ratioP2;P2;SDS_P1;SDS_P2;PMS_P1;PMS_P2;Temp;Humidity;BMP_temperature;BMP_pressure;BME280_temperature;BME280_humidity;BME280_pressure;Samples;Min_cycle;Max_cycle;Signal;HPM_P1;HPM_P2
2022/04/24 00:01:57;;;;;;;4.32;3.92;;;13.00;78.50;;;;;;5104443;28;20047;-42
2022/04/24 00:04:24;;;;;;;4.95;4.55;;;13.00;78.70;;;;;;5091862;28;20040;-42
2022/04/24 00:06:52;;;;;;;4.82;4.28;;;12.90;78.90;;;;;;5104747;28;20024;-41
2022/04/24 00:09:17;;;;;;;5.40;4.90;;;12.90;79.10;;;;;;5092076;28;20044;-41
2022/04/24 00:11:43;;;;;;;5.63;5.10;;;12.80;79.10;;;;;;5105126;28;20024;-41
2022/04/24 00:14:10;;;;;;;6.32;5.72;;;12.80;79.50;;;;;;5091994;28;20054;-42
2022/04/24 00:16:39;;;;;;;5.85;5.25;;;12.70;79.90;;;;;;5104390;28;20552;-41
2022/04/24 00:19:06;;;;;;;6.13;5.53;;;12.70;80.30;;;;;;5094520;28;20814;-42
2022/04/24 00:21:32;;;;;;;6.55;5.53;;;12.60;80.30;;;;;;5101032;28;20387;-41
2022/04/24 00:23:57;;;;;;;6.07;5.57;;;12.50;80.50;;;;;;5096640;28;20518;-42
2022/04/24 00:26:23;;;;;;;6.10;5.50;;;12.50;80.80;;;;;;5098511;28;20032;-44
2022/04/24 00:28:49;;;;;;;6.00;5.50;;;12.40;81.20;;;;;;5087964;28;20042;-43
2022/04/24 00:31:17;;;;;;;6.72;5.43;;;12.40;81.00;;;;;;5091615;28;20032;-40
2022/04/24 00:33:43;;;;;;;6.68;5.97;;;12.40;81.10;;;;;;5086632;28;20028;-41
2022/04/24 00:36:08;;;;;;;6.68;5.75;;;12.30;81.20;;;;;;5093906;28;20024;-40
2022/04/24 00:38:40;;;;;;;8.43;5.53;;;12.30;81.40;;;;;;5084844;28;20047;-43
2022/04/24 00:41:05;;;;;;;6.30;5.50;;;12.30;81.50;;;;;;5095539;28;20028;-41
2022/04/24 00:43:31;;;;;;;5.95;5.45;;;12.30;81.80;;;;;;5088380;28;20035;-41
2022/04/24 00:46:13;;;;;;;6.32;5.72;;;12.20;82.10;;;;;;5099459;28;20093;-41
2022/04/24 00:48:40;;;;;;;6.35;5.70;;;12.20;82.20;;;;;;5088961;28;20035;-42
2022/04/24 00:51:06;;;;;;;7.50;6.70;;;12.10;82.50;;;;;;5099707;28;20102;-41
2022/04/24 00:53:32;;;;;;;6.25;5.65;;;12.10;82.80;;;;;;5087544;28;20024;-42
2022/04/24 00:55:57;;;;;;;6.70;6.10;;;12.10;83.70;;;;;;5099382;28;20050;-42
2022/04/24 00:58:24;;;;;;;6.93;5.82;;;12.00;83.40;;;;;;5087868;28;20511;-43
2022/04/24 01:00:49;;;;;;;6.35;5.75;;;12.00;83.40;;;;;;5100858;28;20047;-41
2022/04/24 01:03:15;;;;;;;7.88;6.90;;;12.00;83.50;;;;;;5086872;28;20036;-41
2022/04/24 01:05:41;;;;;;;6.85;6.15;;;12.00;84.00;;;;;;5098360;28;20035;-42
2022/04/24 01:08:06;;;;;;;7.97;7.18;;;11.90;84.00;;;;;;5089790;28;20762;-42
2022/04/24 01:10:39;;;;;;;8.18;7.38;;;11.90;84.30;;;;;;5094406;28;20270;-41
2022/04/24 01:13:05;;;;;;;7.18;6.50;;;11.90;84.50;;;;;;5092027;28;20118;-42
2022/04/24 01:15:31;;;;;;;7.93;6.97;;;11.80;84.50;;;;;;5093160;28;20077;-43
2022/04/24 01:17:58;;;;;;;9.52;7.43;;;11.80;85.00;;;;;;5093282;28;20031;-44
2022/04/24 01:20:24;;;;;;;12.68;7.75;;;11.80;85.10;;;;;;5091072;28;20049;-42
2022/04/24 01:22:52;;;;;;;7.90;7.10;;;11.80;85.60;;;;;;5096072;28;20031;-40
2022/04/24 01:25:18;;;;;;;8.07;7.28;;;11.80;85.70;;;;;;5088054;28;20118;-43
2022/04/24 01:27:43;;;;;;;8.07;7.28;;;11.80;86.00;;;;;;5107137;28;20122;-44
2022/04/24 01:30:09;;;;;;;8.15;7.35;;;11.80;86.20;;;;;;5106683;28;20111;-42
2022/04/24 01:32:35;;;;;;;8.07;7.28;;;11.70;86.30;;;;;;5094914;28;20573;-40
2022/04/24 01:35:02;;;;;;;8.98;7.43;;;11.70;86.30;;;;;;5107256;28;20745;-42
2022/04/24 01:37:27;;;;;;;8.18;7.38;;;11.70;86.40;;;;;;5094686;28;20039;-42
2022/04/24 01:39:56;;;;;;;8.93;7.97;;;11.70;86.90;;;;;;5106814;28;20027;-41
2022/04/24 01:42:22;;;;;;;9.48;7.10;;;11.60;87.30;;;;;;5094132;28;20028;-42
2022/04/24 01:44:48;;;;;;;7.78;6.97;;;11.60;87.10;;;;;;5107694;28;20042;-42
2022/04/24 01:47:13;;;;;;;10.30;7.72;;;11.60;87.60;;;;;;5094458;28;20490;-40
2022/04/24 01:49:39;;;;;;;7.63;6.93;;;11.60;87.80;;;;;;5106537;28;20496;-42
2022/04/24 01:52:06;;;;;;;8.13;7.32;;;11.60;87.80;;;;;;5097501;28;20024;-41
2022/04/24 01:54:31;;;;;;;9.20;8.23;;;11.50;88.20;;;;;;5102407;28;20473;-42
2022/04/24 01:56:57;;;;;;;9.23;6.70;;;11.50;88.50;;;;;;5100648;28;20248;-42
2022/04/24 01:59:22;;;;;;;9.18;7.78;;;11.50;88.80;;;;;;5100333;28;20031;-41
2022/04/24 02:01:51;;;;;;;8.73;7.63;;;11.40;89.10;;;;;;5102916;28;20031;-42
2022/04/24 02:04:19;;;;;;;9.98;7.85;;;11.40;89.30;;;;;;5098785;28;20032;-42
2022/04/24 02:06:44;;;;;;;8.70;7.72;;;11.40;90.00;;;;;;5104249;28;20019;-41
2022/04/24 02:09:10;;;;;;;8.18;7.30;;;11.40;90.10;;;;;;5096580;28;20079;-42
2022/04/24 02:11:36;;;;;;;9.63;7.85;;;11.30;90.00;;;;;;5104807;28;20016;-41
2022/04/24 02:14:01;;;;;;;8.65;7.65;;;11.30;90.30;;;;;;5095079;28;20110;-42
2022/04/24 02:16:27;;;;;;;8.98;8.13;;;11.20;90.50;;;;;;5105549;28;20566;-40
2022/04/24 02:18:52;;;;;;;9.48;8.18;;;11.20;90.60;;;;;;5094589;28;20532;-42
2022/04/24 02:21:18;;;;;;;10.05;8.40;;;11.20;90.80;;;;;;5105830;28;20023;-44
2022/04/24 02:23:44;;;;;;;8.63;7.72;;;11.10;90.90;;;;;;5093152;28;20067;-41
2022/04/24 02:26:09;;;;;;;10.15;8.27;;;11.10;91.10;;;;;;5106789;28;20085;-40
2022/04/24 02:28:35;;;;;;;10.48;7.90;;;11.10;91.30;;;;;;5092919;28;20135;-41
2022/04/24 02:31:00;;;;;;;8.57;7.65;;;11.00;91.30;;;;;;5105420;28;20475;-42
2022/04/24 02:33:26;;;;;;;10.82;8.20;;;11.00;91.40;;;;;;5096568;28;20106;-42
2022/04/24 02:35:51;;;;;;;9.98;7.78;;;11.00;91.70;;;;;;5102475;28;20471;-41
2022/04/24 02:38:17;;;;;;;11.55;8.70;;;10.90;91.70;;;;;;5099714;28;20028;-41
2022/04/24 02:40:43;;;;;;;8.15;7.35;;;10.90;91.70;;;;;;5099662;28;20090;-41
2022/04/24 02:43:08;;;;;;;8.77;7.88;;;10.90;91.80;;;;;;5101827;28;20036;-42
2022/04/24 02:45:34;;;;;;;9.70;8.30;;;10.90;92.10;;;;;;5096495;28;20038;-41
2022/04/24 02:47:59;;;;;;;8.27;7.47;;;10.90;92.10;;;;;;5104230;28;20829;-40
2022/04/24 02:50:26;;;;;;;8.35;7.55;;;10.80;92.00;;;;;;5093859;28;20024;-41
2022/04/24 02:52:55;;;;;;;8.07;7.28;;;10.80;92.10;;;;;;5104506;28;20019;-42
2022/04/24 02:55:22;;;;;;;7.68;6.85;;;10.80;92.20;;;;;;5093888;28;20045;-42
2022/04/24 02:57:48;;;;;;;10.35;7.97;;;10.80;92.20;;;;;;5105646;28;20055;-42
2022/04/24 03:00:22;;;;;;;8.40;7.53;;;10.70;92.30;;;;;;5093305;28;20038;-41
2022/04/24 03:02:49;;;;;;;8.52;7.63;;;10.70;92.40;;;;;;5104825;28;20043;-42
2022/04/24 03:05:17;;;;;;;9.63;7.75;;;10.70;92.50;;;;;;5091160;28;20086;-42
2022/04/24 03:07:43;;;;;;;8.13;7.32;;;10.70;92.90;;;;;;5105630;28;20069;-41
2022/04/24 03:10:09;;;;;;;7.60;6.88;;;10.70;92.60;;;;;;5091979;28;20058;-41
2022/04/24 03:12:36;;;;;;;10.23;7.65;;;10.60;92.80;;;;;;5105196;28;20033;-40
2022/04/24 03:15:03;;;;;;;10.73;7.72;;;10.60;92.80;;;;;;5094605;28;20029;-42
2022/04/24 03:17:31;;;;;;;7.80;7.03;;;10.60;92.80;;;;;;5102682;28;20031;-42
2022/04/24 03:19:56;;;;;;;7.72;6.93;;;10.60;92.90;;;;;;5097320;28;20023;-42
2022/04/24 03:22:22;;;;;;;7.95;7.25;;;10.50;92.80;;;;;;5102072;28;20832;-44
2022/04/24 03:24:47;;;;;;;8.65;7.25;;;10.50;92.90;;;;;;5098206;28;20032;-41
2022/04/24 03:27:13;;;;;;;8.07;7.28;;;10.50;93.00;;;;;;5092913;28;20475;-40
2022/04/24 03:29:38;;;;;;;9.05;6.88;;;10.50;93.00;;;;;;5087930;28;20069;-42
2022/04/24 03:32:05;;;;;;;8.52;7.63;;;10.40;93.10;;;;;;5093618;28;20040;-42
2022/04/24 03:34:31;;;;;;;8.25;6.82;;;10.40;93.20;;;;;;5085558;28;20388;-41
2022/04/24 03:36:57;;;;;;;8.60;7.40;;;10.40;93.20;;;;;;5096251;28;20479;-42
2022/04/24 03:39:22;;;;;;;7.72;6.57;;;10.40;93.20;;;;;;5085532;28;20055;-42
2022/04/24 03:41:47;;;;;;;8.82;6.47;;;10.40;93.30;;;;;;5096003;28;20035;-41
2022/04/24 03:44:13;;;;;;;8.73;7.32;;;10.30;93.30;;;;;;5084703;28;20070;-42
2022/04/24 03:46:38;;;;;;;7.50;6.25;;;10.30;93.40;;;;;;5096304;28;20394;-42
2022/04/24 03:49:04;;;;;;;8.77;7.50;;;10.30;93.40;;;;;;5084832;28;20024;-42
2022/04/24 03:51:29;;;;;;;8.13;7.32;;;10.30;93.40;;;;;;5097045;28;20450;-42
2022/04/24 03:53:55;;;;;;;7.85;7.10;;;10.30;93.70;;;;;;5084197;28;20016;-42
2022/04/24 03:56:20;;;;;;;7.10;6.40;;;10.20;93.50;;;;;;5094345;28;20571;-43
2022/04/24 03:58:46;;;;;;;10.07;6.75;;;10.20;93.60;;;;;;5086089;28;20925;-41
2022/04/24 04:01:12;;;;;;;7.90;7.10;;;10.20;93.60;;;;;;5092356;28;20613;-41
2022/04/24 04:03:38;;;;;;;7.60;6.80;;;10.10;93.70;;;;;;5089334;28;20036;-42
2022/04/24 04:06:03;;;;;;;8.00;6.85;;;10.00;93.80;;;;;;5088993;28;20352;-42
2022/04/24 04:08:29;;;;;;;7.82;6.57;;;10.00;93.90;;;;;;5092006;28;20065;-43
2022/04/24 04:10:59;;;;;;;7.75;6.82;;;10.00;93.90;;;;;;5087768;28;20069;-43
2022/04/24 04:13:25;;;;;;;7.82;6.60;;;9.90;94.00;;;;;;5093195;28;20024;-42
2022/04/24 04:15:51;;;;;;;9.27;6.80;;;9.90;94.00;;;;;;5085576;28;20016;-41
2022/04/24 04:18:17;;;;;;;8.77;7.40;;;9.90;94.20;;;;;;5095476;28;20016;-41
2022/04/24 04:20:44;;;;;;;7.82;6.95;;;9.90;94.20;;;;;;5085036;28;20028;-40
2022/04/24 04:23:10;;;;;;;7.38;6.60;;;9.80;94.30;;;;;;5096315;28;20032;-41
2022/04/24 04:25:36;;;;;;;8.32;7.28;;;9.80;94.30;;;;;;5083971;28;20043;-42
2022/04/24 04:28:01;;;;;;;8.85;7.10;;;9.80;94.40;;;;;;5087988;28;20039;-43
2022/04/24 04:30:27;;;;;;;7.80;6.20;;;9.70;94.40;;;;;;5083797;28;20073;-41
2022/04/24 04:32:53;;;;;;;7.15;6.15;;;9.70;94.40;;;;;;5089557;28;20073;-42
2022/04/24 04:35:22;;;;;;;7.53;6.70;;;9.70;94.50;;;;;;5104463;28;20029;-42
2022/04/24 04:37:48;;;;;;;7.50;6.53;;;9.70;94.50;;;;;;5093112;28;20083;-42
2022/04/24 04:40:14;;;;;;;7.55;6.75;;;9.70;94.60;;;;;;5102318;28;20055;-43
2022/04/24 04:42:39;;;;;;;7.28;6.47;;;9.60;94.50;;;;;;5095345;28;20043;-41
2022/04/24 04:45:11;;;;;;;6.38;5.75;;;9.60;94.60;;;;;;5100321;28;20103;-42
2022/04/24 04:47:37;;;;;;;8.68;7.43;;;9.60;94.70;;;;;;5097813;28;20028;-42
2022/04/24 04:50:03;;;;;;;7.47;6.68;;;9.60;94.70;;;;;;5098247;28;20134;-41
2022/04/24 04:52:28;;;;;;;8.35;6.57;;;9.60;94.80;;;;;;5100687;28;20054;-42
2022/04/24 04:54:54;;;;;;;7.75;6.15;;;9.50;94.80;;;;;;5095495;28;20015;-43
2022/04/24 04:57:19;;;;;;;7.55;6.78;;;9.50;94.80;;;;;;5102480;28;20825;-42
2022/04/24 04:59:45;;;;;;;7.28;6.47;;;9.50;95.00;;;;;;5093031;28;20459;-43
2022/04/24 05:02:10;;;;;;;9.43;6.47;;;9.50;95.00;;;;;;5102351;28;20693;-41
2022/04/24 05:04:36;;;;;;;7.38;6.57;;;9.50;94.90;;;;;;5092449;28;20035;-41
2022/04/24 05:07:01;;;;;;;7.50;6.80;;;9.50;95.00;;;;;;5104668;28;20106;-40
2022/04/24 05:09:27;;;;;;;6.35;5.45;;;9.50;94.90;;;;;;5089936;28;20028;-41
2022/04/24 05:11:53;;;;;;;6.75;6.05;;;9.50;94.90;;;;;;5104334;28;20028;-43
2022/04/24 05:14:18;;;;;;;6.65;6.00;;;9.50;94.90;;;;;;5090996;28;20021;-41
2022/04/24 05:16:44;;;;;;;6.57;5.97;;;9.50;94.90;;;;;;5103124;28;20542;-40
2022/04/24 05:19:10;;;;;;;6.82;6.05;;;9.50;95.20;;;;;;5093108;28;20028;-42
2022/04/24 05:21:35;;;;;;;6.15;5.55;;;9.50;94.80;;;;;;5102072;28;20032;-43
2022/04/24 05:24:01;;;;;;;8.90;6.88;;;9.50;94.90;;;;;;5095217;28;20058;-41
2022/04/24 05:26:27;;;;;;;6.95;6.25;;;9.50;94.90;;;;;;5099181;28;20112;-41
2022/04/24 05:28:53;;;;;;;6.53;5.82;;;9.60;94.90;;;;;;5099115;28;20056;-42
2022/04/24 05:31:19;;;;;;;6.57;5.88;;;9.60;94.80;;;;;;5099564;28;20120;-42
2022/04/24 05:33:45;;;;;;;6.65;6.05;;;9.60;94.80;;;;;;5104559;28;20035;-42
2022/04/24 05:36:10;;;;;;;6.03;5.43;;;9.60;94.70;;;;;;5098337;28;20578;-41
2022/04/24 05:38:42;;;;;;;7.07;5.60;;;9.60;94.70;;;;;;5105221;28;20029;-41
2022/04/24 05:41:07;;;;;;;7.32;6.20;;;9.70;94.70;;;;;;5096492;28;20391;-42
2022/04/24 05:43:33;;;;;;;9.05;5.93;;;9.70;94.60;;;;;;5105918;28;20054;-41
2022/04/24 05:45:58;;;;;;;5.65;5.05;;;9.80;94.60;;;;;;5094929;28;20103;-41
2022/04/24 05:48:24;;;;;;;6.25;5.65;;;9.80;94.50;;;;;;5106511;28;20020;-42
2022/04/24 05:50:49;;;;;;;5.82;5.10;;;9.80;94.40;;;;;;5094080;28;20764;-42
2022/04/24 05:53:15;;;;;;;7.03;5.70;;;9.80;94.40;;;;;;5105956;28;20031;-40
2022/04/24 05:55:40;;;;;;;6.35;5.28;;;9.90;94.70;;;;;;5093961;28;20039;-41
2022/04/24 05:58:06;;;;;;;5.53;5.00;;;9.90;94.30;;;;;;5106950;28;20643;-42
2022/04/24 06:00:32;;;;;;;5.90;5.30;;;9.90;94.30;;;;;;5095068;28;20470;-41
2022/04/24 06:02:57;;;;;;;6.70;5.38;;;9.90;94.20;;;;;;5105426;28;20028;-42
2022/04/24 06:05:23;;;;;;;7.85;6.03;;;10.00;94.20;;;;;;5098448;28;20032;-43
2022/04/24 06:07:49;;;;;;;6.03;5.40;;;10.10;94.10;;;;;;5102225;28;20080;-41
2022/04/24 06:10:15;;;;;;;7.05;5.93;;;10.10;94.00;;;;;;5101047;28;20024;-39
2022/04/24 06:12:47;;;;;;;5.22;4.72;;;10.10;94.00;;;;;;5098900;28;20478;-40
2022/04/24 06:15:15;;;;;;;8.40;5.22;;;10.20;93.90;;;;;;5102832;28;20038;-42
2022/04/24 06:17:47;;;;;;;6.32;5.57;;;10.20;93.80;;;;;;5097921;28;20491;-41
2022/04/24 06:20:14;;;;;;;6.18;5.43;;;10.20;93.70;;;;;;5103946;28;20023;-42
2022/04/24 06:22:47;;;;;;;6.10;5.40;;;10.30;93.70;;;;;;5096002;28;20019;-42
2022/04/24 06:25:27;;;;;;;5.32;4.82;;;10.30;93.60;;;;;;5104911;28;20065;-43
2022/04/24 06:27:53;;;;;;;6.55;5.90;;;10.40;93.60;;;;;;5078587;28;20036;-41
2022/04/24 06:30:22;;;;;;;5.90;5.30;;;10.40;93.50;;;;;;5089223;28;20031;-40
2022/04/24 06:32:48;;;;;;;5.75;5.25;;;10.40;93.50;;;;;;5099068;28;20028;-41
2022/04/24 06:35:16;;;;;;;6.05;5.15;;;10.50;93.50;;;;;;5088211;28;20026;-41
2022/04/24 06:37:46;;;;;;;6.68;5.30;;;10.50;93.40;;;;;;5097536;28;20520;-43
2022/04/24 06:40:13;;;;;;;7.03;5.90;;;10.60;93.40;;;;;;5085921;28;20030;-40
2022/04/24 06:42:58;;;;;;;5.80;5.20;;;10.60;93.20;;;;;;5091630;28;20050;-41
2022/04/24 06:45:27;;;;;;;6.13;5.53;;;10.70;93.20;;;;;;5105540;28;20034;-42
2022/04/24 06:47:58;;;;;;;6.25;5.60;;;10.70;93.10;;;;;;5093446;28;20031;-41
2022/04/24 06:50:24;;;;;;;6.82;5.53;;;10.80;93.10;;;;;;5106254;28;20023;-43
2022/04/24 06:53:08;;;;;;;6.55;5.18;;;10.80;93.10;;;;;;5093557;28;20024;-42
2022/04/24 06:55:36;;;;;;;6.00;5.30;;;10.80;93.00;;;;;;5105250;28;20031;-41
2022/04/24 06:58:03;;;;;;;5.40;4.90;;;10.90;92.90;;;;;;5089660;28;20124;-42
2022/04/24 07:00:30;;;;;;;6.57;4.97;;;10.90;92.90;;;;;;5104428;28;20039;-42
2022/04/24 07:02:55;;;;;;;6.40;5.70;;;11.00;92.80;;;;;;5090961;28;20563;-41
2022/04/24 07:05:26;;;;;;;6.55;5.38;;;11.00;92.70;;;;;;5105256;28;20111;-39
2022/04/24 07:07:52;;;;;;;5.20;4.75;;;11.10;92.70;;;;;;5093086;28;20077;-41
2022/04/24 07:10:18;;;;;;;6.22;4.82;;;11.10;92.70;;;;;;5102495;28;20028;-42
2022/04/24 07:12:52;;;;;;;8.00;5.88;;;11.10;92.70;;;;;;5095743;28;20424;-41
2022/04/24 07:15:23;;;;;;;5.97;5.22;;;11.20;92.50;;;;;;5102631;28;20164;-43
2022/04/24 07:17:50;;;;;;;5.40;4.90;;;11.10;92.50;;;;;;5095835;28;20394;-41
2022/04/24 07:20:17;;;;;;;5.57;5.07;;;11.20;92.40;;;;;;5100757;28;20027;-42
2022/04/24 07:22:54;;;;;;;6.32;5.07;;;11.20;92.30;;;;;;5097152;28;20035;-41
2022/04/24 07:25:27;;;;;;;5.07;4.57;;;11.30;92.40;;;;;;5099302;28;20073;-42
2022/04/24 07:27:53;;;;;;;6.13;5.38;;;11.40;92.60;;;;;;5098754;28;20024;-44
2022/04/24 07:30:20;;;;;;;7.35;4.65;;;11.40;92.30;;;;;;5097506;28;20107;-43
2022/04/24 07:32:52;;;;;;;5.50;5.00;;;11.50;92.30;;;;;;5100618;28;20102;-42
2022/04/24 07:35:32;;;;;;;6.90;5.60;;;11.50;92.20;;;;;;5095787;28;20391;-42
2022/04/24 07:37:57;;;;;;;7.28;5.18;;;11.60;92.10;;;;;;5100131;28;20051;-42
2022/04/24 07:40:26;;;;;;;6.63;5.38;;;11.60;92.00;;;;;;5095172;28;20054;-43
2022/04/24 07:42:56;;;;;;;5.22;4.72;;;11.70;91.90;;;;;;5103194;28;20463;-42
2022/04/24 07:45:30;;;;;;;5.35;4.85;;;11.80;91.90;;;;;;5082274;28;20066;-43
2022/04/24 07:48:00;;;;;;;4.38;3.97;;;11.80;91.80;;;;;;5102988;28;20034;-43
2022/04/24 07:50:28;;;;;;;10.40;5.40;;;11.90;91.80;;;;;;5092615;28;20042;-42
2022/04/24 07:52:54;;;;;;;6.63;5.50;;;12.00;91.70;;;;;;5101542;28;20027;-41
2022/04/24 07:55:22;;;;;;;6.95;5.63;;;12.00;91.60;;;;;;5092991;28;20133;-44
2022/04/24 07:57:49;;;;;;;7.10;4.70;;;12.10;91.50;;;;;;5103159;28;20066;-42
2022/04/24 08:00:16;;;;;;;6.13;5.50;;;12.10;91.50;;;;;;5090657;28;20102;-41
2022/04/24 08:02:56;;;;;;;5.72;5.15;;;12.20;91.40;;;;;;5104235;28;20059;-42
2022/04/24 08:05:24;;;;;;;6.35;5.28;;;12.20;91.30;;;;;;5090680;28;20085;-42
2022/04/24 08:07:50;;;;;;;6.65;5.30;;;12.30;91.20;;;;;;5103755;28;20875;-41
2022/04/24 08:10:16;;;;;;;4.80;4.38;;;12.40;91.20;;;;;;5091579;28;20028;-42
2022/04/24 08:12:42;;;;;;;5.32;4.80;;;12.50;91.00;;;;;;5103908;28;20027;-44
2022/04/24 08:15:08;;;;;;;5.28;4.78;;;12.50;90.90;;;;;;5093006;28;20605;-42
2022/04/24 08:17:33;;;;;;;7.97;5.13;;;12.60;91.00;;;;;;5103416;28;20039;-43
2022/04/24 08:19:59;;;;;;;6.18;5.00;;;12.70;90.80;;;;;;5095083;28;20082;-42
2022/04/24 08:22:24;;;;;;;6.72;5.40;;;12.70;90.80;;;;;;5100396;28;20772;-40
2022/04/24 08:24:50;;;;;;;6.38;4.70;;;12.80;90.60;;;;;;5098374;28;20097;-41
2022/04/24 08:27:15;;;;;;;5.03;4.53;;;12.80;90.70;;;;;;5094843;28;20023;-41
2022/04/24 08:29:41;;;;;;;6.53;5.45;;;12.90;90.70;;;;;;5087082;28;20491;-41
2022/04/24 08:32:06;;;;;;;5.93;5.25;;;13.00;90.50;;;;;;5093703;28;20063;-42
2022/04/24 08:34:32;;;;;;;7.22;5.50;;;13.00;90.30;;;;;;5084176;28;21050;-42
2022/04/24 08:36:57;;;;;;;7.38;5.38;;;13.10;90.20;;;;;;5095747;28;20039;-42
2022/04/24 08:39:23;;;;;;;5.97;5.18;;;13.20;90.10;;;;;;5085379;28;20020;-42
2022/04/24 08:41:52;;;;;;;5.82;5.15;;;13.20;90.00;;;;;;5094824;28;20039;-42
2022/04/24 08:44:17;;;;;;;5.93;5.05;;;13.20;90.00;;;;;;5084246;28;20043;-43
2022/04/24 08:46:45;;;;;;;5.68;5.10;;;13.30;89.80;;;;;;5084036;28;20020;-41
2022/04/24 08:49:12;;;;;;;5.47;4.97;;;13.40;89.30;;;;;;5082502;28;20040;-42
2022/04/24 08:51:40;;;;;;;5.53;4.88;;;13.40;89.10;;;;;;5096112;28;20892;-42
2022/04/24 08:54:05;;;;;;;5.88;5.28;;;13.50;89.50;;;;;;5083620;28;20036;-43
2022/04/24 08:56:31;;;;;;;5.82;5.22;;;13.50;88.80;;;;;;5094853;28;20575;-42
2022/04/24 08:58:56;;;;;;;10.20;5.75;;;13.60;88.80;;;;;;5085623;28;20036;-42
2022/04/24 09:01:22;;;;;;;7.30;5.85;;;13.70;88.70;;;;;;5090185;28;20011;-40
2022/04/24 09:03:47;;;;;;;5.70;5.15;;;13.70;87.90;;;;;;5106545;28;20549;-42
2022/04/24 09:06:23;;;;;;;6.95;5.35;;;13.80;87.90;;;;;;5101515;28;20783;-41
2022/04/24 09:08:48;;;;;;;7.72;6.93;;;13.80;87.90;;;;;;5103011;28;20035;-42
2022/04/24 09:11:16;;;;;;;7.63;5.85;;;13.90;87.40;;;;;;5102987;28;20036;-37
2022/04/24 09:16:37;;;;;;;5.18;4.68;;;14.00;87.30;;;;;;5095228;28;20120;-41
2022/04/24 09:19:14;;;;;;;8.90;6.45;;;14.10;87.40;;;;;;5094015;28;20149;-43
2022/04/24 09:21:39;;;;;;;9.05;6.55;;;14.20;86.60;;;;;;5092870;28;20032;-43
2022/04/24 09:24:05;;;;;;;7.35;6.07;;;14.20;86.30;;;;;;5093411;28;20089;-41
2022/04/24 09:26:31;;;;;;;6.20;5.60;;;14.30;86.10;;;;;;5089793;28;20027;-41
2022/04/24 09:28:56;;;;;;;5.93;5.32;;;14.30;86.00;;;;;;5092052;28;20028;-41
2022/04/24 09:31:28;;;;;;;5.10;4.60;;;14.40;86.00;;;;;;5087660;28;20499;-41
2022/04/24 09:33:54;;;;;;;6.65;5.15;;;14.40;86.30;;;;;;5099322;28;20573;-40
2022/04/24 09:36:25;;;;;;;6.00;5.47;;;14.50;86.10;;;;;;5087658;28;20103;-37
2022/04/24 09:38:51;;;;;;;6.85;6.15;;;14.60;85.90;;;;;;5098742;28;20039;-41
2022/04/24 09:41:19;;;;;;;5.80;5.20;;;14.60;85.10;;;;;;5087319;28;20395;-41
2022/04/24 09:43:44;;;;;;;5.80;5.30;;;14.60;84.90;;;;;;5098047;28;20113;-41
2022/04/24 09:46:10;;;;;;;6.18;5.57;;;14.70;84.80;;;;;;5087663;28;20024;-43
2022/04/24 09:48:36;;;;;;;6.50;5.30;;;14.80;84.70;;;;;;5098555;28;20118;-40
2022/04/24 09:51:02;;;;;;;6.18;5.25;;;14.80;84.60;;;;;;5086727;28;20404;-42
2022/04/24 09:53:29;;;;;;;6.60;5.30;;;14.90;84.50;;;;;;5098029;28;20024;-41
2022/04/24 09:55:55;;;;;;;6.38;5.53;;;14.90;84.20;;;;;;5087177;28;20523;-40
2022/04/24 09:58:21;;;;;;;6.07;5.18;;;15.00;84.10;;;;;;5096118;28;20015;-41
2022/04/24 10:00:47;;;;;;;6.20;5.60;;;15.10;84.20;;;;;;5089898;28;20374;-41
2022/04/24 10:03:15;;;;;;;6.28;5.53;;;15.10;83.60;;;;;;5093719;28;20102;-41
2022/04/24 10:05:43;;;;;;;5.72;5.22;;;15.10;83.20;;;;;;5091819;28;20035;-41
2022/04/24 10:08:09;;;;;;;5.72;5.20;;;15.20;83.40;;;;;;5089659;28;20065;-41
2022/04/24 10:10:35;;;;;;;5.45;4.60;;;15.30;83.50;;;;;;5093491;28;20566;-42
2022/04/24 10:13:04;;;;;;;5.43;4.93;;;15.30;83.40;;;;;;5088515;28;20020;-40
2022/04/24 10:15:32;;;;;;;4.90;4.30;;;15.30;83.40;;;;;;5095529;28;20074;-38
2022/04/24 10:18:32;;;;;;;6.10;5.10;;;15.40;83.40;;;;;;5088182;28;20031;-41
2022/04/24 10:21:29;;;;;;;5.97;5.38;;;15.40;82.70;;;;;;5092519;28;20101;-40
2022/04/24 10:23:54;;;;;;;8.75;4.82;;;15.40;82.20;;;;;;5099559;28;20066;-41
2022/04/24 10:26:22;;;;;;;6.70;5.63;;;15.50;82.30;;;;;;5099711;28;20047;-41
2022/04/24 10:29:03;;;;;;;6.78;4.82;;;15.60;81.60;;;;;;5100992;28;20780;-41
2022/04/24 10:31:41;;;;;;;5.78;5.20;;;15.70;81.30;;;;;;5085609;28;20048;-41
2022/04/24 10:34:06;;;;;;;4.95;4.47;;;15.70;80.70;;;;;;5091975;28;20008;-41
2022/04/24 10:36:32;;;;;;;5.22;4.72;;;15.70;80.80;;;;;;5092788;28;20086;-41
2022/04/24 10:38:59;;;;;;;5.05;4.60;;;15.80;80.80;;;;;;5089167;28;20034;-39
2022/04/24 10:41:29;;;;;;;6.85;4.38;;;15.90;80.80;;;;;;5094619;28;20024;-42
2022/04/24 10:43:59;;;;;;;7.53;5.35;;;15.90;80.60;;;;;;5087152;28;20081;-41
2022/04/24 10:46:28;;;;;;;5.15;4.55;;;15.90;80.20;;;;;;5083719;28;20463;-42
2022/04/24 10:49:05;;;;;;;7.00;4.90;;;16.00;80.30;;;;;;5105482;28;20491;-41
2022/04/24 10:51:32;;;;;;;5.93;4.97;;;16.00;79.80;;;;;;5094193;28;20027;-43
2022/04/24 10:53:59;;;;;;;5.93;5.00;;;16.10;79.00;;;;;;5103113;28;20024;-39
2022/04/24 10:56:26;;;;;;;6.60;4.80;;;16.10;78.80;;;;;;5094510;28;20056;-42
2022/04/24 10:58:51;;;;;;;7.90;4.88;;;16.10;79.10;;;;;;5106359;28;20099;-40
2022/04/24 11:01:17;;;;;;;6.53;5.85;;;16.20;79.40;;;;;;5093043;28;20102;-39
2022/04/24 11:03:45;;;;;;;6.57;5.22;;;16.20;79.10;;;;;;5098932;28;20527;-41
2022/04/24 11:06:23;;;;;;;7.55;4.63;;;16.20;78.10;;;;;;5098797;28;20027;-41
2022/04/24 11:08:49;;;;;;;5.43;4.93;;;16.20;78.00;;;;;;5085235;28;20070;-41
2022/04/24 11:11:17;;;;;;;5.93;4.63;;;16.20;78.00;;;;;;5098715;28;20046;-44
2022/04/24 11:13:43;;;;;;;5.05;3.70;;;16.20;78.20;;;;;;5085831;28;20024;-42
2022/04/24 11:16:10;;;;;;;6.28;5.05;;;16.20;77.80;;;;;;5096803;28;20149;-41
2022/04/24 11:18:36;;;;;;;8.45;4.97;;;16.30;77.70;;;;;;5086517;28;20147;-42
2022/04/24 11:21:07;;;;;;;5.57;4.93;;;16.40;77.20;;;;;;5094656;28;20348;-40
2022/04/24 11:23:38;;;;;;;5.32;4.82;;;16.40;77.30;;;;;;5087098;28;20562;-42
2022/04/24 11:26:08;;;;;;;8.60;6.00;;;16.40;77.00;;;;;;5092723;28;20029;-41
2022/04/24 11:28:37;;;;;;;6.60;4.63;;;16.40;77.60;;;;;;5101143;28;20020;-40
2022/04/24 11:31:21;;;;;;;6.38;4.95;;;16.40;78.00;;;;;;5098293;28;20387;-40
2022/04/24 11:33:56;;;;;;;6.82;4.80;;;16.50;77.70;;;;;;5101412;28;20032;-41
2022/04/24 11:36:23;;;;;;;7.75;5.25;;;16.50;76.60;;;;;;5097785;28;20016;-42
2022/04/24 11:38:50;;;;;;;8.07;5.03;;;16.50;76.00;;;;;;5100776;28;20028;-41
2022/04/24 11:41:17;;;;;;;5.30;4.45;;;16.50;76.40;;;;;;5100571;28;20591;-42
2022/04/24 11:43:42;;;;;;;6.15;4.00;;;16.50;76.30;;;;;;5097650;28;20027;-41
2022/04/24 11:51:36;;;;;;;5.13;4.53;;;16.90;76.20;;;;;;5099837;28;20494;-42
2022/04/24 11:54:02;;;;;;;4.32;3.67;;;17.00;76.20;;;;;;5098520;28;20020;-41
2022/04/24 11:56:32;;;;;;;5.72;4.60;;;17.10;75.80;;;;;;5102268;28;20040;-42
2022/04/24 11:59:18;;;;;;;5.40;4.30;;;17.20;74.60;;;;;;5095692;28;20028;-43
2022/04/24 12:01:45;;;;;;;5.22;4.00;;;17.20;75.00;;;;;;5101636;28;20867;-42
2022/04/24 12:04:18;;;;;;;4.80;4.20;;;17.30;75.20;;;;;;5095108;28;20047;-41
2022/04/24 12:06:43;;;;;;;7.07;4.68;;;17.40;74.50;;;;;;5103417;28;20054;-41
2022/04/24 12:09:12;;;;;;;5.80;3.60;;;17.50;73.80;;;;;;5094958;28;20070;-42
2022/04/24 12:11:38;;;;;;;6.50;4.30;;;17.50;74.00;;;;;;5102735;28;20367;-43
2022/04/24 12:14:11;;;;;;;5.72;4.38;;;17.50;73.70;;;;;;5093726;28;20028;-42
2022/04/24 12:16:45;;;;;;;5.75;5.00;;;17.40;73.40;;;;;;5102726;28;20027;-43
2022/04/24 12:19:12;;;;;;;5.35;4.15;;;17.40;73.20;;;;;;5093185;28;20104;-42
2022/04/24 12:21:46;;;;;;;7.47;4.13;;;17.30;73.40;;;;;;5104911;28;20028;-41
2022/04/24 12:24:12;;;;;;;5.05;4.18;;;17.30;73.30;;;;;;5092455;28;20028;-42
2022/04/24 12:26:51;;;;;;;5.78;4.25;;;17.20;73.30;;;;;;5083964;28;20034;-41
2022/04/24 12:29:17;;;;;;;4.95;4.28;;;17.20;73.10;;;;;;5103315;28;20059;-42
2022/04/24 12:31:47;;;;;;;5.93;4.55;;;17.30;72.80;;;;;;5101827;28;20070;-40
2022/04/24 12:34:14;;;;;;;4.60;4.15;;;17.40;71.80;;;;;;5096219;28;20088;-43
2022/04/24 12:36:49;;;;;;;5.72;4.25;;;17.40;71.60;;;;;;5085126;28;20562;-42
2022/04/24 12:39:23;;;;;;;4.38;3.97;;;17.40;71.40;;;;;;5099657;28;20039;-43
2022/04/24 12:41:49;;;;;;;4.07;3.30;;;17.40;71.10;;;;;;5089362;28;20020;-42
2022/04/24 12:44:15;;;;;;;4.72;4.00;;;17.40;71.40;;;;;;5101563;28;20105;-42
2022/04/24 12:46:41;;;;;;;5.65;4.45;;;17.50;70.80;;;;;;5067611;28;20468;-43
2022/04/24 12:49:07;;;;;;;9.52;4.63;;;17.60;69.50;;;;;;5091082;28;20042;-41
2022/04/24 12:51:33;;;;;;;4.60;4.15;;;17.70;69.40;;;;;;5090021;28;20119;-43
2022/04/24 12:54:01;;;;;;;5.28;3.83;;;17.70;67.90;;;;;;5095524;28;20042;-43
2022/04/24 12:56:27;;;;;;;3.53;3.22;;;17.80;68.00;;;;;;5092259;28;20052;-41
2022/04/24 12:58:53;;;;;;;4.88;3.60;;;17.80;68.40;;;;;;5092767;28;20034;-41